Time;durP1;ratioP1;P1;durP2;ratioP2;P2;SDS_P1;SDS_P2;PMS_P1;PMS_P2;Temp;Humidity;BMP_temperature;BMP_pressure;BME280_temperature;BME280_humidity;BME280_pressure;Samples;Min_cycle;Max_cycle;Signal;HPM_P1;HPM_P2
2021/03/03 00:01:58;;;;;;;93.37;47.70;;;;;;;-1.28;81.20;99680.67;1772752;81;21044;-71
2021/03/03 00:04:22;;;;;;;98.17;48.63;;;;;;;-1.29;81.53;99674.52;1760577;81;21042;-70
2021/03/03 00:06:48;;;;;;;101.62;46.28;;;;;;;-1.36;82.12;99680.18;1772781;81;21270;-71
2021/03/03 00:09:14;;;;;;;88.40;42.15;;;;;;;-1.38;82.05;99678.66;1761107;81;21534;-70
2021/03/03 00:11:40;;;;;;;98.52;43.90;;;;;;;-1.36;80.65;99673.53;1772859;81;21500;-70
2021/03/03 00:14:07;;;;;;;95.03;44.20;;;;;;;-1.47;79.96;99677.30;1761041;81;21128;-71
2021/03/03 00:16:33;;;;;;;102.02;47.40;;;;;;;-1.61;82.10;99677.95;1772727;81;21119;-71
2021/03/03 00:18:59;;;;;;;105.85;43.40;;;;;;;-1.65;82.19;99671.77;1761109;81;21478;-71
2021/03/03 00:21:25;;;;;;;118.60;53.33;;;;;;;-1.60;81.00;99676.95;1772742;81;21135;-71
2021/03/03 00:23:51;;;;;;;136.70;64.30;;;;;;;-1.67;80.49;99668.45;1756047;80;21204;-71
2021/03/03 00:26:17;;;;;;;154.50;64.65;;;;;;;-1.76;81.28;99670.25;1765722;81;21154;-71
2021/03/03 00:28:46;;;;;;;109.22;49.98;;;;;;;-1.80;81.52;99667.56;1765722;81;21058;-71
2021/03/03 00:31:12;;;;;;;120.37;52.70;;;;;;;-1.83;80.12;99667.89;1826519;78;21075;-71
2021/03/03 00:33:38;;;;;;;99.37;44.90;;;;;;;-1.89;80.60;99661.38;1826362;78;21059;-71
2021/03/03 00:36:05;;;;;;;98.22;44.10;;;;;;;-1.89;80.05;99659.22;1826256;78;21267;-71
2021/03/03 00:38:31;;;;;;;91.22;39.55;;;;;;;-2.01;80.60;99659.52;1826287;78;21040;-71
2021/03/03 00:40:57;;;;;;;74.85;37.28;;;;;;;-2.03;80.00;99663.33;1826352;78;21145;-71
2021/03/03 00:43:23;;;;;;;87.30;39.65;;;;;;;-2.06;80.80;99657.81;1826218;78;21098;-71
2021/03/03 00:45:50;;;;;;;74.67;35.05;;;;;;;-2.04;81.75;99653.20;1826419;78;21106;-71
2021/03/03 00:48:16;;;;;;;72.80;34.67;;;;;;;-1.91;82.46;99654.07;1826192;78;21186;-71
2021/03/03 00:50:42;;;;;;;87.92;37.95;;;;;;;-1.82;82.79;99657.59;1826297;78;21561;-71
2021/03/03 00:53:12;;;;;;;93.37;44.18;;;;;;;-1.72;83.24;99650.31;1826247;78;21114;-71
2021/03/03 00:55:38;;;;;;;82.78;39.08;;;;;;;-1.70;82.60;99643.03;1826363;78;21467;-71
2021/03/03 00:58:04;;;;;;;97.70;46.33;;;;;;;-1.71;81.95;99643.53;1826256;78;21111;-71
2021/03/03 01:00:31;;;;;;;90.67;40.60;;;;;;;-1.76;82.97;99641.84;1826167;78;21258;-71
2021/03/03 01:02:57;;;;;;;74.07;35.28;;;;;;;-1.83;82.80;99639.48;1826222;78;21118;-71
2021/03/03 01:05:23;;;;;;;71.75;35.25;;;;;;;-1.84;81.38;99636.50;1826243;78;21033;-71
2021/03/03 01:07:49;;;;;;;87.53;36.75;;;;;;;-1.98;81.32;99635.77;1826369;78;21494;-71
2021/03/03 01:10:16;;;;;;;84.07;38.95;;;;;;;-2.02;81.47;99637.09;1826248;78;21078;-71
2021/03/03 01:12:42;;;;;;;77.58;34.27;;;;;;;-2.18;82.13;99643.66;1826336;78;21301;-71
2021/03/03 01:15:09;;;;;;;73.87;34.33;;;;;;;-2.21;81.06;99642.16;1826199;78;21456;-71
2021/03/03 01:17:36;;;;;;;77.30;35.20;;;;;;;-2.33;83.56;99643.41;1826295;78;21122;-71
2021/03/03 01:20:03;;;;;;;70.80;33.73;;;;;;;-2.30;84.21;99635.98;1826333;78;21043;-71
2021/03/03 01:22:30;;;;;;;72.47;33.13;;;;;;;-2.24;84.43;99636.31;1836121;77;21099;-71
2021/03/03 01:24:56;;;;;;;80.60;37.53;;;;;;;-2.15;83.42;99632.20;1784123;80;21262;-71
2021/03/03 01:27:22;;;;;;;88.52;36.95;;;;;;;-2.11;82.92;99622.95;1816048;79;21031;-71
2021/03/03 01:29:48;;;;;;;78.17;35.45;;;;;;;-2.09;84.34;99628.09;1784024;80;21110;-71
2021/03/03 01:32:14;;;;;;;70.83;34.67;;;;;;;-2.06;82.96;99624.61;1784067;80;21535;-71
2021/03/03 01:34:40;;;;;;;72.85;33.45;;;;;;;-2.08;82.50;99621.29;1784026;80;21027;-71
2021/03/03 01:37:07;;;;;;;68.60;30.85;;;;;;;-2.05;82.56;99624.11;1784005;80;22080;-71
2021/03/03 01:39:33;;;;;;;69.03;33.80;;;;;;;-2.08;81.47;99624.44;1784044;80;21043;-71
2021/03/03 01:41:59;;;;;;;66.47;28.95;;;;;;;-2.13;82.50;99626.27;1784062;80;21162;-71
2021/03/03 01:44:25;;;;;;;62.65;28.87;;;;;;;-2.16;83.94;99624.41;1783990;80;21039;-71
2021/03/03 01:46:51;;;;;;;68.33;34.95;;;;;;;-2.13;83.84;99620.13;1784118;80;21129;-71
2021/03/03 01:49:17;;;;;;;65.83;33.95;;;;;;;-2.12;83.62;99618.63;1784050;80;21200;-71
2021/03/03 01:51:43;;;;;;;77.55;37.42;;;;;;;-2.10;83.36;99618.47;1783958;80;21162;-71
2021/03/03 01:54:10;;;;;;;65.97;34.70;;;;;;;-2.16;83.15;99621.75;1784036;80;21114;-71
2021/03/03 01:56:36;;;;;;;62.13;31.42;;;;;;;-2.21;82.96;99616.94;1784104;80;21102;-71
2021/03/03 01:59:02;;;;;;;65.80;32.28;;;;;;;-2.19;82.53;99622.91;1784083;80;21027;-71
2021/03/03 02:01:28;;;;;;;55.67;26.65;;;;;;;-2.20;82.58;99613.78;1784161;80;21952;-71
2021/03/03 02:03:55;;;;;;;62.65;32.23;;;;;;;-2.22;81.67;99613.95;1784053;80;21094;-71
2021/03/03 02:06:55;;;;;;;58.98;28.98;;;;;;;-2.28;83.26;99607.44;1784147;80;21161;-71
2021/03/03 02:09:38;;;;;;;61.75;28.62;;;;;;;-2.37;83.65;99604.91;1783906;80;21436;-71
2021/03/03 02:12:16;;;;;;;58.87;31.15;;;;;;;-2.39;82.54;99608.22;1783918;80;21086;-70
2021/03/03 02:14:46;;;;;;;57.40;27.82;;;;;;;-2.38;83.61;99606.72;1784180;80;21437;-71
2021/03/03 02:17:12;;;;;;;63.38;27.93;;;;;;;-2.35;82.71;99597.11;1784188;80;21475;-71
2021/03/03 02:19:38;;;;;;;54.23;26.40;;;;;;;-2.41;81.23;99606.19;1784146;80;21107;-72
2021/03/03 02:22:27;;;;;;;55.73;29.20;;;;;;;-2.51;80.93;99602.82;1783806;80;21141;-71
2021/03/03 02:24:56;;;;;;;;;;;;;;;-2.56;83.82;99601.98;1789873;80;21032;-71
2021/03/03 02:27:23;;;;;;;47.65;21.52;;;;;;;-2.49;83.03;99593.70;1787190;80;21265;-71
2021/03/03 02:29:49;;;;;;;50.30;25.50;;;;;;;-2.47;81.61;99596.23;1787122;80;21095;-72
2021/03/03 02:32:17;;;;;;;55.17;24.07;;;;;;;-2.55;84.11;99595.69;1787269;80;21566;-72
2021/03/03 02:34:44;;;;;;;49.70;24.52;;;;;;;-2.49;83.24;99594.20;1787157;80;21043;-72
2021/03/03 02:37:13;;;;;;;49.73;23.50;;;;;;;-2.43;83.66;99590.92;1787192;80;21095;-72
2021/03/03 02:39:39;;;;;;;61.50;28.83;;;;;;;-2.42;83.80;99593.91;1787338;80;21482;-72
2021/03/03 02:42:06;;;;;;;48.42;25.88;;;;;;;-2.41;83.70;99587.11;1787101;80;21166;-71
2021/03/03 02:44:32;;;;;;;49.95;24.70;;;;;;;-2.37;82.24;99586.31;1787149;80;21079;-72
2021/03/03 02:46:58;;;;;;;52.05;25.27;;;;;;;-2.41;82.34;99580.97;1787202;80;21137;-72
2021/03/03 02:49:25;;;;;;;54.93;24.52;;;;;;;-2.44;81.71;99586.61;1787255;80;21047;-72
2021/03/03 02:51:51;;;;;;;54.08;26.52;;;;;;;-2.53;81.20;99588.39;1787199;80;21188;-72
2021/03/03 02:54:17;;;;;;;57.38;27.98;;;;;;;-2.63;81.11;99588.50;1787156;80;21114;-72
2021/03/03 02:56:43;;;;;;;65.25;27.50;;;;;;;-2.71;81.38;99587.63;1787198;80;21118;-72
2021/03/03 02:59:35;;;;;;;57.60;25.35;;;;;;;-2.75;81.53;99587.08;1787136;80;21471;-71
2021/03/03 03:02:04;;;;;;;53.25;23.95;;;;;;;-2.83;82.46;99589.69;1787168;80;21091;-71
2021/03/03 03:04:34;;;;;;;51.25;28.38;;;;;;;-2.81;81.63;99589.06;1758785;80;21110;-71
2021/03/03 03:07:04;;;;;;;57.15;26.30;;;;;;;-2.79;84.46;99584.42;1787200;80;21507;-71
2021/03/03 03:09:30;;;;;;;60.65;28.25;;;;;;;-2.67;84.62;99578.34;1787160;80;21443;-71
2021/03/03 03:12:03;;;;;;;58.70;27.30;;;;;;;-2.62;83.50;99582.20;1787146;80;21091;-72
2021/03/03 03:14:36;;;;;;;48.98;23.18;;;;;;;-2.54;83.53;99585.89;1787136;80;21114;-72
2021/03/03 03:17:25;;;;;;;49.85;24.32;;;;;;;-2.55;82.80;99579.76;1787180;80;21119;-72
2021/03/03 03:20:14;;;;;;;51.55;22.58;;;;;;;-2.60;82.26;99583.37;1787101;80;21118;-71
2021/03/03 03:23:02;;;;;;;44.83;21.27;;;;;;;-2.64;81.75;99584.69;1791870;78;21198;-71
2021/03/03 03:25:52;;;;;;;41.25;18.92;;;;;;;-2.75;81.20;99584.43;1792394;79;21029;-71
2021/03/03 03:28:41;;;;;;;45.48;20.92;;;;;;;-2.91;81.36;99586.48;1792141;79;21135;-71
2021/03/03 03:31:29;;;;;;;51.60;23.57;;;;;;;-2.98;83.07;99585.95;1792595;79;21195;-72
2021/03/03 03:34:17;;;;;;;40.78;20.62;;;;;;;-2.98;84.56;99576.67;1793952;79;21152;-71
2021/03/03 03:37:06;;;;;;;50.83;26.25;;;;;;;-2.94;84.33;99580.66;1758936;81;21056;-72
2021/03/03 03:39:55;;;;;;;50.95;25.12;;;;;;;-2.89;83.88;99571.76;1753421;80;21664;-72
2021/03/03 03:42:44;;;;;;;54.08;27.15;;;;;;;-2.93;83.73;99573.87;1760705;81;21259;-72
2021/03/03 03:45:32;;;;;;;51.33;26.02;;;;;;;-2.89;82.77;99572.59;1758434;81;21063;-72
2021/03/03 03:48:21;;;;;;;72.00;28.45;;;;;;;-3.06;82.20;99556.72;1829843;78;28751;-71
2021/03/03 03:54:16;;;;;;;44.70;21.45;;;;;;;-3.05;82.89;99567.66;1832103;77;21409;-71
2021/03/03 03:57:05;;;;;;;73.47;30.85;;;;;;;-3.03;81.70;99566.52;1760704;80;21166;-71
2021/03/03 03:59:54;;;;;;;59.83;25.88;;;;;;;-3.20;82.51;99562.91;1761965;80;21238;-72
2021/03/03 04:02:36;;;;;;;;;;;;;;;-3.24;81.92;99561.56;1831838;77;21115;-72
2021/03/03 04:05:24;;;;;;;58.70;25.25;;;;;;;-3.23;83.02;99561.91;1829627;78;20232;-72
2021/03/03 04:08:06;;;;;;;;;;;;;;;-3.20;83.59;99559.42;1762180;80;21200;-72
2021/03/03 04:10:54;;;;;;;70.15;32.03;;;;;;;-3.17;83.74;99564.41;1762040;80;20223;-72
2021/03/03 04:13:43;;;;;;;61.30;27.48;;;;;;;-3.13;84.51;99556.50;1824981;78;21108;-72
2021/03/03 04:16:32;;;;;;;54.60;23.45;;;;;;;-3.11;83.55;99558.50;1828761;78;21111;-71
2021/03/03 04:19:14;;;;;;;;;;;;;;;-3.15;82.64;99550.03;1831580;77;21041;-72
2021/03/03 04:22:03;;;;;;;56.80;27.32;;;;;;;-3.14;82.97;99553.02;1828730;78;20219;-71
2021/03/03 04:24:52;;;;;;;55.98;25.45;;;;;;;-3.12;83.65;99552.86;1831620;77;21485;-72
2021/03/03 04:27:40;;;;;;;82.45;31.90;;;;;;;-3.20;82.39;99550.98;1830338;78;21619;-72
2021/03/03 04:30:29;;;;;;;66.75;26.37;;;;;;;-3.24;84.07;99549.63;1830594;77;21024;-72
2021/03/03 04:33:17;;;;;;;55.48;25.43;;;;;;;-3.17;83.83;99546.68;1830084;78;26130;-71
2021/03/03 04:36:07;;;;;;;60.08;23.40;;;;;;;-3.15;84.18;99551.36;1829120;77;21032;-72
2021/03/03 04:38:56;;;;;;;57.58;26.95;;;;;;;-3.13;83.24;99543.23;1833657;77;21163;-72
2021/03/03 04:41:44;;;;;;;65.42;32.42;;;;;;;-3.19;84.15;99543.36;1831524;78;21110;-72
2021/03/03 04:44:33;;;;;;;53.30;24.77;;;;;;;-3.20;83.98;99539.05;1831382;77;21040;-72
2021/03/03 04:47:05;;;;;;;57.58;25.37;;;;;;;-3.14;83.38;99533.63;1828766;78;21163;-70
2021/03/03 04:49:32;;;;;;;63.30;28.87;;;;;;;-3.16;83.19;99534.28;1835509;78;21044;-70
2021/03/03 04:51:58;;;;;;;134.10;33.42;;;;;;;-3.17;83.98;99533.91;1835657;78;21527;-71
2021/03/03 04:54:24;;;;;;;48.55;22.20;;;;;;;-3.14;84.49;99533.12;1835544;78;21192;-70
2021/03/03 04:56:50;;;;;;;64.22;25.70;;;;;;;-3.09;84.28;99529.99;1835570;78;21108;-71
2021/03/03 04:59:16;;;;;;;53.38;22.00;;;;;;;-3.08;84.33;99534.30;1835645;77;21135;-70
2021/03/03 05:01:43;;;;;;;50.28;23.77;;;;;;;-3.13;83.64;99529.98;1835659;78;21120;-71
2021/03/03 05:04:09;;;;;;;46.30;20.68;;;;;;;-3.09;83.83;99533.97;1835683;78;21461;-71
2021/03/03 05:06:35;;;;;;;53.60;25.20;;;;;;;-3.07;82.63;99533.84;1835607;77;21196;-71
2021/03/03 05:09:01;;;;;;;48.23;23.05;;;;;;;-3.17;83.53;99529.44;1835475;78;21012;-71
2021/03/03 05:11:27;;;;;;;63.90;29.40;;;;;;;-3.14;84.56;99525.67;1812734;78;21108;-71
2021/03/03 05:13:54;;;;;;;50.98;27.77;;;;;;;-3.10;83.81;99523.03;1835630;78;21449;-71
2021/03/03 05:16:20;;;;;;;54.98;25.15;;;;;;;-3.11;83.45;99521.37;1835737;78;21075;-70
2021/03/03 05:18:46;;;;;;;42.67;22.40;;;;;;;-3.08;82.89;99525.02;1835635;78;22092;-70
2021/03/03 05:21:12;;;;;;;48.70;23.57;;;;;;;-3.09;82.11;99523.36;1835481;78;21187;-71
2021/03/03 05:23:39;;;;;;;53.20;25.25;;;;;;;-3.19;82.34;99525.29;1835578;78;21076;-70
2021/03/03 05:26:05;;;;;;;46.50;21.12;;;;;;;-3.20;83.16;99520.48;1835600;78;21163;-71
2021/03/03 05:28:32;;;;;;;60.40;26.75;;;;;;;-3.19;81.92;99521.31;1835558;78;21528;-71
2021/03/03 05:30:58;;;;;;;121.72;39.70;;;;;;;-3.27;82.11;99526.55;1835594;78;21181;-70
2021/03/03 05:33:32;;;;;;;84.28;38.95;;;;;;;-3.24;82.51;99519.64;1835469;77;21187;-71
2021/03/03 05:36:00;;;;;;;72.03;34.25;;;;;;;-3.22;83.54;99525.11;1835787;78;21079;-71
2021/03/03 05:38:27;;;;;;;52.83;25.40;;;;;;;-3.12;82.89;99521.03;1835948;77;21445;-71
2021/03/03 05:40:54;;;;;;;54.20;28.38;;;;;;;-3.13;83.37;99512.75;1835790;78;21159;-71
2021/03/03 05:43:21;;;;;;;72.85;29.40;;;;;;;-3.04;83.36;99517.61;1812939;78;21179;-71
2021/03/03 05:45:47;;;;;;;67.32;29.70;;;;;;;-2.97;83.07;99514.67;1835735;78;21544;-71
2021/03/03 05:48:28;;;;;;;62.08;25.75;;;;;;;-2.96;82.75;99518.48;1835691;77;21028;-71
2021/03/03 05:51:02;;;;;;;51.55;25.40;;;;;;;-2.92;82.15;99514.52;1764512;81;21088;-71
2021/03/03 05:53:29;;;;;;;58.60;27.87;;;;;;;-2.91;82.70;99514.02;1835855;77;21095;-72
2021/03/03 05:55:57;;;;;;;55.60;24.65;;;;;;;-2.83;83.16;99512.74;1835426;78;22026;-71
2021/03/03 05:58:24;;;;;;;59.00;28.83;;;;;;;-2.71;83.20;99515.97;1762948;81;21492;-72
2021/03/03 06:00:50;;;;;;;60.12;29.10;;;;;;;-2.64;82.23;99514.35;1835553;78;21119;-72
2021/03/03 06:03:17;;;;;;;64.97;27.73;;;;;;;-2.59;83.13;99518.17;1835797;78;21550;-72
2021/03/03 06:05:47;;;;;;;71.55;33.67;;;;;;;-2.49;82.21;99512.73;1812255;78;21107;-72
2021/03/03 06:08:15;;;;;;;72.42;29.30;;;;;;;-2.41;82.79;99516.75;1835715;78;21142;-72
2021/03/03 06:10:42;;;;;;;58.13;26.33;;;;;;;-2.34;82.31;99511.64;1834905;78;21433;-72
2021/03/03 06:13:08;;;;;;;95.45;45.15;;;;;;;-2.21;81.70;99508.05;1836219;77;21159;-72
2021/03/03 06:15:34;;;;;;;75.52;37.60;;;;;;;-2.20;81.65;99516.84;1836039;77;21006;-72
2021/03/03 06:18:01;;;;;;;114.80;56.23;;;;;;;-2.27;81.76;99509.51;1835437;77;21146;-72
2021/03/03 06:20:28;;;;;;;99.03;46.95;;;;;;;-2.22;81.21;99506.38;1835905;77;21244;-72
2021/03/03 06:22:54;;;;;;;108.60;58.33;;;;;;;-2.23;80.96;99509.17;1764801;80;21108;-72
2021/03/03 06:25:22;;;;;;;52.10;26.85;;;;;;;-2.31;80.81;99504.20;1776521;78;21032;-72
2021/03/03 06:27:48;;;;;;;137.80;73.45;;;;;;;-2.27;81.28;99506.86;1835774;77;21095;-71
2021/03/03 06:30:17;;;;;;;78.67;40.20;;;;;;;-2.10;81.83;99498.94;1835683;77;21481;-71
2021/03/03 06:33:07;;;;;;;123.45;65.08;;;;;;;-1.88;81.97;99494.80;1816883;77;21088;-71
2021/03/03 06:35:42;;;;;;;125.75;57.70;;;;;;;-1.79;81.14;99497.83;1834292;77;21081;-71
2021/03/03 06:38:14;;;;;;;130.25;62.50;;;;;;;-1.84;80.63;99500.97;1835732;78;21083;-71
2021/03/03 06:40:55;;;;;;;135.70;61.48;;;;;;;-1.84;80.62;99500.14;1835829;78;21409;-72
2021/03/03 06:43:28;;;;;;;113.25;52.90;;;;;;;-1.49;80.62;99494.50;1802024;77;21045;-72
2021/03/03 06:45:55;;;;;;;99.05;46.77;;;;;;;-1.25;80.14;99492.34;1835320;78;21183;-70
2021/03/03 06:48:40;;;;;;;90.03;42.43;;;;;;;-1.17;80.35;99494.98;1834428;77;21386;-71
2021/03/03 06:51:25;;;;;;;92.12;47.40;;;;;;;-1.16;79.92;99495.81;1829490;78;21469;-71
2021/03/03 06:53:52;;;;;;;97.67;43.20;;;;;;;-1.19;80.00;99493.50;1829061;78;21034;-71
2021/03/03 06:56:40;;;;;;;101.65;45.03;;;;;;;-1.08;79.98;99494.47;1830135;78;21080;-71
2021/03/03 06:59:27;;;;;;;86.30;42.98;;;;;;;-1.02;79.81;99492.47;1806912;78;21266;-71
2021/03/03 07:02:13;;;;;;;92.88;43.87;;;;;;;-0.95;80.29;99484.62;1830444;77;21445;-71
2021/03/03 07:04:46;;;;;;;119.57;61.28;;;;;;;-0.79;79.73;99493.89;1759438;81;21511;-71
2021/03/03 07:07:18;;;;;;;151.12;69.72;;;;;;;-0.62;80.42;99488.84;1807094;78;21034;-71
2021/03/03 07:09:58;;;;;;;120.05;57.43;;;;;;;-0.31;79.96;99492.05;1830120;78;21509;-71
2021/03/03 07:12:25;;;;;;;106.12;47.30;;;;;;;-0.20;80.02;99488.98;1829822;78;21489;-72
2021/03/03 07:15:01;;;;;;;91.67;44.55;;;;;;;-0.06;79.85;99491.42;1759442;81;21060;-72
2021/03/03 07:17:38;;;;;;;135.20;46.08;;;;;;;0.14;79.47;99484.62;1830118;78;21108;-71
2021/03/03 07:20:07;;;;;;;78.47;38.40;;;;;;;0.38;79.35;99469.45;1829738;78;21057;-71
2021/03/03 07:22:39;;;;;;;81.30;43.65;;;;;;;0.78;78.16;99475.77;1830102;78;21096;-71
2021/03/03 07:25:09;;;;;;;85.77;46.30;;;;;;;1.57;76.13;99468.05;1758959;81;22082;-72
2021/03/03 07:27:37;;;;;;;74.12;41.28;;;;;;;2.28;74.78;99464.20;1829457;78;21076;-71
2021/03/03 07:30:16;;;;;;;57.43;35.08;;;;;;;3.45;73.83;99463.11;1830023;78;21021;-72
2021/03/03 07:32:43;;;;;;;57.15;35.23;;;;;;;4.53;71.80;99459.50;1830094;78;21049;-71
2021/03/03 07:35:11;;;;;;;60.40;34.67;;;;;;;5.72;70.07;99457.10;1759189;81;21068;-71
2021/03/03 07:37:48;;;;;;;53.40;33.80;;;;;;;6.70;68.91;99455.41;1829835;78;22089;-71
2021/03/03 07:40:16;;;;;;;55.63;36.50;;;;;;;7.35;59.63;99449.94;1830102;78;21493;-71
2021/03/03 07:42:54;;;;;;;52.03;32.40;;;;;;;8.05;62.41;99448.15;1830500;77;21076;-71
2021/03/03 07:45:21;;;;;;;45.38;31.75;;;;;;;8.61;61.21;99440.16;1759026;81;21068;-71
2021/03/03 07:47:50;;;;;;;47.55;32.28;;;;;;;9.62;63.05;99432.73;1829697;78;21087;-71
2021/03/03 07:50:20;;;;;;;53.55;34.38;;;;;;;9.75;57.76;99429.77;1820853;78;21505;-71
2021/03/03 07:52:53;;;;;;;59.63;38.45;;;;;;;9.86;59.36;99428.90;1739247;82;21155;-71
2021/03/03 07:55:19;;;;;;;68.75;46.33;;;;;;;10.00;57.79;99427.25;1769839;80;21501;-71
2021/03/03 07:57:51;;;;;;;93.58;68.25;;;;;;;10.48;54.63;99425.99;1769867;81;21120;-71
2021/03/03 08:00:25;;;;;;;59.33;44.13;;;;;;;11.13;53.58;99419.98;1769872;80;21068;-72
2021/03/03 08:02:56;;;;;;;52.67;36.13;;;;;;;11.45;45.20;99419.63;1769769;80;21131;-71
2021/03/03 08:05:30;;;;;;;55.63;39.60;;;;;;;12.68;52.42;99414.99;1756625;81;21111;-71
2021/03/03 08:08:34;;;;;;;46.25;31.40;;;;;;;13.04;47.48;99410.62;1769826;81;21112;-71
2021/03/03 08:11:08;;;;;;;40.55;28.57;;;;;;;14.09;49.11;99404.59;1769693;80;21112;-71
2021/03/03 08:13:36;;;;;;;40.88;25.72;;;;;;;14.54;48.65;99406.35;1769844;80;21068;-71
2021/03/03 08:16:03;;;;;;;40.20;26.02;;;;;;;13.80;48.44;99398.80;1769871;81;22049;-71
2021/03/03 08:18:34;;;;;;;57.53;45.08;;;;;;;12.48;50.03;99402.59;1770005;80;21123;-71
2021/03/03 08:21:11;;;;;;;49.00;33.45;;;;;;;11.76;46.98;99400.45;1769811;81;21402;-71
2021/03/03 08:23:39;;;;;;;97.72;85.07;;;;;;;12.87;48.94;99389.02;1769741;81;21217;-71
2021/03/03 08:26:17;;;;;;;58.70;50.25;;;;;;;14.09;46.21;99385.52;1770018;80;21508;-72
2021/03/03 08:28:50;;;;;;;37.93;25.88;;;;;;;15.12;44.79;99378.18;1770022;81;21185;-73
2021/03/03 08:31:24;;;;;;;43.92;28.40;;;;;;;16.44;43.64;99380.32;1769748;80;21128;-73
2021/03/03 08:33:55;;;;;;;45.85;27.87;;;;;;;16.99;42.21;99373.30;1761383;81;21040;-72
2021/03/03 08:36:29;;;;;;;38.85;23.92;;;;;;;17.87;40.40;99375.61;1739240;82;21469;-72
2021/03/03 08:39:01;;;;;;;54.95;27.52;;;;;;;18.52;37.94;99368.87;1761408;81;21504;-73
2021/03/03 08:41:38;;;;;;;39.20;28.57;;;;;;;18.57;38.29;99372.91;1761337;81;21205;-73
2021/03/03 08:44:11;;;;;;;41.08;30.20;;;;;;;19.08;36.08;99365.75;1761335;80;21025;-71
2021/03/03 08:46:46;;;;;;;70.85;29.92;;;;;;;19.86;35.20;99361.19;1761393;81;21079;-73
2021/03/03 08:49:18;;;;;;;35.05;27.27;;;;;;;20.63;34.25;99357.50;1763345;81;21497;-73
2021/03/03 08:51:46;;;;;;;31.17;21.02;;;;;;;21.50;33.66;99351.89;1767898;81;21072;-73
2021/03/03 08:54:21;;;;;;;30.03;21.90;;;;;;;22.16;31.55;99345.80;1764041;81;21979;-73
2021/03/03 08:56:53;;;;;;;75.52;64.80;;;;;;;22.36;30.42;99339.62;1746940;80;21127;-73
2021/03/03 08:59:40;;;;;;;35.45;21.12;;;;;;;22.64;29.90;99336.49;1763898;81;21485;-74
2021/03/03 09:02:18;;;;;;;26.12;20.80;;;;;;;23.76;29.68;99336.71;1768515;80;21080;-74
2021/03/03 09:04:47;;;;;;;32.40;19.60;;;;;;;22.73;26.54;99333.14;1768248;81;21033;-72
2021/03/03 09:07:24;;;;;;;34.35;20.15;;;;;;;20.47;30.69;99339.98;1768113;80;21189;-72
2021/03/03 09:09:56;;;;;;;25.97;17.97;;;;;;;18.87;32.21;99330.97;1764236;81;21041;-72
2021/03/03 09:12:29;;;;;;;42.23;19.90;;;;;;;17.53;33.85;99331.08;1773115;81;21083;-71
2021/03/03 09:14:58;;;;;;;24.87;17.20;;;;;;;16.14;34.73;99329.38;1764151;81;21015;-72
2021/03/03 09:17:31;;;;;;;26.97;20.35;;;;;;;15.17;35.45;99325.76;1773018;81;21131;-72
2021/03/03 09:20:01;;;;;;;38.05;18.60;;;;;;;13.93;36.96;99319.84;1742583;80;41859;-72
2021/03/03 09:22:34;;;;;;;28.80;16.45;;;;;;;13.22;37.78;99320.95;1772559;81;21156;-72
2021/03/03 09:25:16;;;;;;;29.87;19.23;;;;;;;12.65;39.10;99314.36;1762168;80;21418;-71
2021/03/03 09:27:58;;;;;;;34.05;20.30;;;;;;;12.19;39.68;99315.08;1771998;81;21111;-72
2021/03/03 09:30:27;;;;;;;31.60;19.92;;;;;;;11.71;40.74;99315.42;1764397;81;21174;-71
2021/03/03 09:32:53;;;;;;;;;;;;;;;11.48;41.02;99310.55;1838252;78;21187;-71
2021/03/03 09:35:30;;;;;;;22.95;13.62;;;;;;;11.34;40.96;99310.64;1835605;78;20211;-70
2021/03/03 09:37:56;;;;;;;93.62;43.78;;;;;;;11.12;41.27;99307.13;1835612;78;21104;-70
2021/03/03 09:40:30;;;;;;;237.00;118.87;;;;;;;11.03;42.20;99309.99;1835541;78;20997;-70
2021/03/03 09:42:57;;;;;;;70.67;36.17;;;;;;;10.96;42.31;99304.20;1834891;78;21088;-71
2021/03/03 09:45:24;;;;;;;265.23;147.95;;;;;;;10.90;42.45;99307.91;1835513;78;21186;-71
2021/03/03 09:47:51;;;;;;;26.87;16.93;;;;;;;10.85;42.54;99301.08;1835518;78;21064;-71
2021/03/03 09:50:23;;;;;;;36.77;22.22;;;;;;;10.80;42.63;99294.22;1803590;78;21064;-72
2021/03/03 10:05:37;;;;;;;38.92;17.73;;;;;;;11.06;43.64;99280.46;1761346;81;21108;-72
2021/03/03 10:08:12;;;;;;;22.30;14.45;;;;;;;11.08;43.54;99271.53;1761430;80;21563;-71
2021/03/03 10:10:42;;;;;;;21.68;12.25;;;;;;;11.12;43.62;99270.51;1760591;80;21517;-71
2021/03/03 10:13:20;;;;;;;27.50;12.20;;;;;;;11.13;43.76;99267.53;1760924;81;21218;-72
2021/03/03 10:15:46;;;;;;;19.87;11.57;;;;;;;11.16;43.51;99260.23;1761364;80;21124;-70
2021/03/03 10:18:13;;;;;;;19.60;12.00;;;;;;;11.24;43.91;99261.69;1761405;80;21128;-71
2021/03/03 10:20:55;;;;;;;23.92;11.90;;;;;;;11.25;44.15;99253.83;1739239;82;21108;-70
2021/03/03 10:23:25;;;;;;;18.55;10.93;;;;;;;11.30;44.41;99255.25;1768265;80;21085;-71
2021/03/03 10:25:53;;;;;;;19.85;11.43;;;;;;;11.37;44.26;99251.81;1761444;81;21444;-71
2021/03/03 10:28:21;;;;;;;20.43;11.15;;;;;;;11.44;44.31;99244.80;1761551;80;21083;-71
2021/03/03 10:30:49;;;;;;;17.10;10.27;;;;;;;11.52;44.48;99245.16;1739582;81;21083;-71
2021/03/03 10:33:40;;;;;;;25.70;13.00;;;;;;;11.58;44.25;99246.86;1761414;81;21139;-71
2021/03/03 10:36:09;;;;;;;28.07;11.55;;;;;;;11.66;44.21;99237.97;1739410;81;21131;-71
2021/03/03 10:41:34;;;;;;;14.43;7.17;;;;;;;11.90;44.24;99229.81;1847724;76;22317;-71
2021/03/03 10:44:05;;;;;;;16.97;8.83;;;;;;;11.97;43.04;99222.81;1808203;78;21413;-70
2021/03/03 10:46:33;;;;;;;17.90;10.15;;;;;;;12.14;41.23;99216.16;1785922;80;21189;-71
2021/03/03 10:49:14;;;;;;;16.70;9.68;;;;;;;12.31;42.90;99211.10;1785816;79;20956;-71
2021/03/03 10:51:40;;;;;;;17.98;10.15;;;;;;;12.42;42.94;99208.72;1785687;80;21093;-72
2021/03/03 10:54:08;;;;;;;13.83;7.83;;;;;;;12.56;43.08;99207.18;1785815;79;21011;-72
2021/03/03 10:56:39;;;;;;;12.07;6.53;;;;;;;12.65;40.72;99206.14;1785919;80;20920;-71
2021/03/03 10:59:11;;;;;;;9.00;5.28;;;;;;;12.81;41.00;99198.84;1785828;79;22285;-71
2021/03/03 11:01:44;;;;;;;9.08;6.03;;;;;;;12.97;37.61;99195.09;1781025;80;21062;-71
2021/03/03 11:04:11;;;;;;;9.33;5.12;;;;;;;13.10;35.45;99185.64;1785842;79;21038;-71
2021/03/03 11:06:37;;;;;;;8.63;5.55;;;;;;;13.25;37.21;99183.80;1785890;80;21071;-71
2021/03/03 11:09:07;;;;;;;9.18;5.35;;;;;;;13.36;37.75;99178.37;1785876;79;21070;-71
2021/03/03 11:11:33;;;;;;;9.63;5.20;;;;;;;13.38;39.09;99181.64;1755033;80;21195;-71
2021/03/03 11:14:00;;;;;;;12.82;5.65;;;;;;;13.39;37.09;99171.02;1785788;79;21030;-71
2021/03/03 11:16:26;;;;;;;11.10;5.78;;;;;;;13.48;38.92;99169.39;1785809;80;21030;-71
2021/03/03 11:18:52;;;;;;;9.65;5.53;;;;;;;13.47;35.64;99159.05;1785971;79;21501;-71
2021/03/03 11:21:18;;;;;;;10.05;5.08;;;;;;;13.62;37.11;99160.16;1785843;80;21037;-71
2021/03/03 11:23:45;;;;;;;9.78;5.70;;;;;;;13.68;35.26;99154.45;1785847;79;21055;-71
2021/03/03 11:26:11;;;;;;;11.03;4.85;;;;;;;13.74;37.53;99160.15;1785778;80;21178;-72
2021/03/03 11:28:45;;;;;;;8.45;5.35;;;;;;;13.75;37.76;99147.34;1785816;79;21174;-71
2021/03/03 11:31:13;;;;;;;9.30;5.30;;;;;;;13.78;38.53;99147.63;1785895;80;21102;-70
2021/03/03 11:34:00;;;;;;;11.05;5.75;;;;;;;13.77;38.75;99145.19;1785580;79;21462;-71
2021/03/03 11:36:26;;;;;;;9.23;5.62;;;;;;;13.76;37.79;99143.56;1785780;80;21186;-71
2021/03/03 11:38:53;;;;;;;12.47;6.35;;;;;;;13.87;35.38;99143.00;1785872;79;21098;-71
2021/03/03 11:41:19;;;;;;;11.43;6.80;;;;;;;13.96;35.54;99138.08;1797717;79;21037;-71
2021/03/03 11:43:45;;;;;;;10.13;6.53;;;;;;;14.00;37.36;99131.52;1800466;78;21399;-71
2021/03/03 11:46:12;;;;;;;14.18;7.55;;;;;;;14.04;34.45;99125.81;1800325;79;21106;-71
2021/03/03 11:48:38;;;;;;;11.93;7.95;;;;;;;14.08;35.81;99126.88;1800412;78;21198;-71
2021/03/03 11:51:13;;;;;;;9.65;7.22;;;;;;;14.17;35.73;99120.31;1800207;79;21102;-71
2021/03/03 11:53:59;;;;;;;9.05;6.70;;;;;;;14.21;34.46;99119.50;1799673;78;21114;-71
2021/03/03 11:56:25;;;;;;;17.50;6.97;;;;;;;14.25;34.54;99115.11;1799843;79;21206;-71
2021/03/03 11:58:51;;;;;;;12.75;7.03;;;;;;;14.38;34.37;99109.64;1799819;78;21118;-71
2021/03/03 12:01:17;;;;;;;13.90;7.33;;;;;;;14.39;36.26;99103.09;1799717;79;21190;-71